createdAt,value
2019-03-10T00:00:40.244Z,4.82
2019-03-10T00:03:12.209Z,5.00
2019-03-10T00:05:44.203Z,4.94
2019-03-10T00:08:16.109Z,5.03
2019-03-10T00:10:48.075Z,5.08
2019-03-10T00:13:19.980Z,5.03
2019-03-10T00:15:51.885Z,4.99
2019-03-10T00:18:23.802Z,5.00
2019-03-10T00:20:56.846Z,4.83
2019-03-10T00:23:28.822Z,4.94
2019-03-10T00:26:01.838Z,4.84
2019-03-10T00:28:33.765Z,4.81
2019-03-10T00:31:05.662Z,4.58
2019-03-10T00:33:37.504Z,4.45
2019-03-10T00:36:09.440Z,4.47
2019-03-10T00:39:07.619Z,4.29
2019-03-10T00:42:18.854Z,4.21
2019-03-10T00:45:58.839Z,4.17
2019-03-10T00:49:28.388Z,4.04
2019-03-10T00:52:32.055Z,4.02
2019-03-10T00:55:04.013Z,3.79
2019-03-10T00:57:35.896Z,3.68
2019-03-10T01:00:19.296Z,3.75
2019-03-10T01:02:51.268Z,3.74
2019-03-10T01:05:23.090Z,3.84
2019-03-10T01:07:55.055Z,3.74
2019-03-10T01:10:26.904Z,3.68
2019-03-10T01:12:58.989Z,3.62
2019-03-10T01:15:31.273Z,3.61
2019-03-10T01:18:04.271Z,3.61
2019-03-10T01:20:36.356Z,3.58
2019-03-10T01:23:08.162Z,3.57
2019-03-10T01:25:40.007Z,3.48
2019-03-10T01:28:11.912Z,3.37
2019-03-10T01:30:56.051Z,3.37
2019-03-10T01:34:10.986Z,3.39
2019-03-10T01:36:42.915Z,3.43
2019-03-10T01:39:14.911Z,3.35
2019-03-10T01:41:46.811Z,3.35
2019-03-10T01:44:18.726Z,3.36
2019-03-10T01:46:50.596Z,3.23
2019-03-10T01:49:24.978Z,3.38
2019-03-10T01:51:56.831Z,3.30
2019-03-10T01:54:28.697Z,3.23
2019-03-10T01:57:00.527Z,3.31
2019-03-10T01:59:32.391Z,3.18
2019-03-10T02:02:04.179Z,3.31
2019-03-10T02:04:36.014Z,3.12
2019-03-10T02:07:07.826Z,3.28
2019-03-10T02:09:39.751Z,3.17
2019-03-10T02:12:11.717Z,3.18
2019-03-10T02:14:43.627Z,3.15
2019-03-10T02:17:15.616Z,3.25
2019-03-10T02:19:47.480Z,3.31
2019-03-10T02:22:19.337Z,3.24
2019-03-10T02:24:51.279Z,3.20
2019-03-10T02:27:23.180Z,3.30
2019-03-10T02:29:55.026Z,3.19
2019-03-10T02:32:26.877Z,3.16
2019-03-10T02:34:58.732Z,3.18
2019-03-10T02:37:30.643Z,3.28
2019-03-10T02:40:02.482Z,3.26
2019-03-10T02:42:35.531Z,3.22
2019-03-10T02:45:08.121Z,3.29
2019-03-10T02:47:40.055Z,3.28
2019-03-10T02:50:12.407Z,3.19
2019-03-10T02:52:45.424Z,3.25
2019-03-10T02:55:17.305Z,3.31
2019-03-10T02:57:49.195Z,3.32
2019-03-10T03:00:21.115Z,3.33
2019-03-10T03:02:52.974Z,3.44
2019-03-10T03:05:24.801Z,3.45
2019-03-10T03:07:56.655Z,3.51
2019-03-10T03:10:28.490Z,3.51
2019-03-10T03:13:00.350Z,3.55
2019-03-10T03:15:32.168Z,3.64
2019-03-10T03:18:04.048Z,3.51
2019-03-10T03:20:35.957Z,3.48
2019-03-10T03:23:07.873Z,3.66
2019-03-10T03:25:39.711Z,3.72
2019-03-10T03:28:11.754Z,3.73
2019-03-10T03:30:43.568Z,3.70
2019-03-10T03:33:15.496Z,3.78
2019-03-10T03:35:59.889Z,3.85
2019-03-10T03:38:48.852Z,3.92
2019-03-10T03:41:21.608Z,3.94
2019-03-10T03:43:53.466Z,3.92
2019-03-10T03:46:25.257Z,3.77
2019-03-10T03:48:57.156Z,3.90
2019-03-10T03:51:29.018Z,4.01
2019-03-10T03:54:00.942Z,4.10
2019-03-10T03:56:32.750Z,4.05
2019-03-10T03:59:04.680Z,4.12
2019-03-10T04:01:51.020Z,4.19
2019-03-10T04:04:22.862Z,4.22
2019-03-10T04:06:55.112Z,4.35
2019-03-10T04:09:27.057Z,4.55
2019-03-10T04:11:58.995Z,4.55
2019-03-10T04:14:30.822Z,4.68
2019-03-10T04:17:02.625Z,4.75
2019-03-10T04:19:34.453Z,4.76
2019-03-10T04:22:06.372Z,4.71
2019-03-10T04:24:38.299Z,4.60
2019-03-10T04:27:10.242Z,4.64
2019-03-10T04:29:42.106Z,4.71
2019-03-10T04:32:14.020Z,4.69
2019-03-10T04:34:45.884Z,4.76
2019-03-10T04:37:17.686Z,4.67
2019-03-10T04:39:49.488Z,4.69
2019-03-10T04:42:21.425Z,4.73
2019-03-10T04:44:53.314Z,4.74
2019-03-10T04:47:25.173Z,4.81
2019-03-10T04:49:57.067Z,4.89
2019-03-10T04:52:28.923Z,4.83
2019-03-10T04:55:19.622Z,4.77
2019-03-10T04:58:16.400Z,4.83
2019-03-10T05:00:51.126Z,4.83
2019-03-10T05:03:22.984Z,4.83
2019-03-10T05:05:54.841Z,4.95
2019-03-10T05:08:26.746Z,5.02
2019-03-10T05:10:58.706Z,5.03
2019-03-10T05:13:31.666Z,5.14
2019-03-10T05:16:03.496Z,5.13
2019-03-10T05:18:35.362Z,5.15
2019-03-10T05:21:07.178Z,5.14
2019-03-10T05:23:44.018Z,5.19
2019-03-10T05:26:17.096Z,5.30
2019-03-10T05:28:50.110Z,5.18
2019-03-10T05:31:22.024Z,5.16
2019-03-10T05:33:53.880Z,5.16
2019-03-10T05:36:25.770Z,5.13
2019-03-10T05:38:57.654Z,5.09
2019-03-10T05:41:29.479Z,5.05
2019-03-10T05:44:01.341Z,5.09
2019-03-10T05:46:33.203Z,5.15
2019-03-10T05:49:05.014Z,5.07
2019-03-10T05:51:36.908Z,5.06
2019-03-10T05:54:09.694Z,5.17
2019-03-10T05:56:41.527Z,5.30
2019-03-10T05:59:13.402Z,5.38
2019-03-10T06:01:45.268Z,5.47
2019-03-10T06:04:17.164Z,5.50
2019-03-10T06:06:49.077Z,5.54
2019-03-10T06:09:21.121Z,5.62
2019-03-10T06:11:53.110Z,5.70
2019-03-10T06:14:24.979Z,5.79
2019-03-10T06:16:56.971Z,5.88
2019-03-10T06:19:30.693Z,5.93
2019-03-10T06:22:03.903Z,6.02
2019-03-10T06:24:35.835Z,6.13
2019-03-10T06:27:09.605Z,6.23
2019-03-10T06:29:44.825Z,6.33
2019-03-10T06:32:18.342Z,6.33
2019-03-10T06:34:55.324Z,6.36
2019-03-10T06:37:27.789Z,6.37
2019-03-10T06:39:59.852Z,6.46
2019-03-10T06:42:31.701Z,6.54
2019-03-10T06:45:03.705Z,6.58
2019-03-10T06:47:35.793Z,6.59
2019-03-10T06:50:09.130Z,6.60
2019-03-10T06:52:41.177Z,6.66
2019-03-10T06:55:13.335Z,6.86
2019-03-10T06:57:48.369Z,7.07
2019-03-10T07:00:20.531Z,7.21
2019-03-10T07:02:52.577Z,7.21
2019-03-10T07:05:24.481Z,7.39
2019-03-10T07:07:58.137Z,7.52
2019-03-10T07:10:32.753Z,7.52
2019-03-10T07:13:05.614Z,7.71
2019-03-10T07:15:40.299Z,7.87
2019-03-10T07:18:14.852Z,7.94
2019-03-10T07:20:46.697Z,8.15
2019-03-10T07:23:20.234Z,8.32
2019-03-10T07:26:08.062Z,8.29
2019-03-10T07:28:57.723Z,8.41
2019-03-10T07:31:44.764Z,8.33
2019-03-10T07:34:50.764Z,8.44
2019-03-10T07:37:53.792Z,8.59
2019-03-10T07:40:44.491Z,8.70
2019-03-10T07:43:33.810Z,8.68
2019-03-10T07:46:23.185Z,8.75
2019-03-10T07:49:29.000Z,9.10
2019-03-10T07:52:35.166Z,9.24
2019-03-10T07:55:32.148Z,9.48
2019-03-10T07:58:17.638Z,9.72
2019-03-10T08:01:07.009Z,9.90
2019-03-10T08:04:06.893Z,10.00
2019-03-10T08:06:49.204Z,10.06
2019-03-10T08:09:46.648Z,10.11
2019-03-10T08:12:26.816Z,10.28
2019-03-10T08:15:16.569Z,10.36
2019-03-10T08:18:14.633Z,10.47
2019-03-10T08:20:58.623Z,10.33
2019-03-10T08:24:00.554Z,10.31
2019-03-10T08:27:01.160Z,9.97
2019-03-10T08:48:40.944Z,9.50
2019-03-10T08:51:30.453Z,9.57
2019-03-10T08:54:16.818Z,9.75
2019-03-10T08:57:04.931Z,10.16
2019-03-10T08:59:57.164Z,10.63
2019-03-10T09:03:00.307Z,11.13
2019-03-10T09:05:51.186Z,11.63
2019-03-10T09:08:40.637Z,11.88
2019-03-10T09:11:35.620Z,12.28
2019-03-10T09:14:35.533Z,12.52
2019-03-10T09:17:29.304Z,12.55
2019-03-10T09:20:25.800Z,11.98
2019-03-10T09:23:09.836Z,11.57
2019-03-10T09:26:03.388Z,11.38
2019-03-10T09:28:44.872Z,10.90
2019-03-10T09:31:44.532Z,10.67
2019-03-10T09:34:28.064Z,11.07
2019-03-10T09:37:21.834Z,10.64
2019-03-10T09:40:22.600Z,10.63
2019-03-10T09:43:11.868Z,10.68
2019-03-10T09:45:56.004Z,10.65
2019-03-10T09:48:45.517Z,10.78
2019-03-10T09:51:38.404Z,11.04
2019-03-10T09:54:26.355Z,10.98
2019-03-10T09:57:13.890Z,11.22
2019-03-10T10:00:07.601Z,10.90
2019-03-10T10:03:10.922Z,10.72
2019-03-10T10:06:04.595Z,10.79
2019-03-10T10:08:54.589Z,10.52
2019-03-10T10:12:12.899Z,10.66
2019-03-10T10:14:52.848Z,10.50
2019-03-10T10:17:44.056Z,9.94
2019-03-10T10:20:24.032Z,9.02
2019-03-10T10:23:14.349Z,9.24
2019-03-10T10:26:10.915Z,9.38
2019-03-10T10:28:59.783Z,8.96
2019-03-10T10:31:56.757Z,8.73
2019-03-10T10:34:40.659Z,9.01
2019-03-10T10:37:26.569Z,9.17
2019-03-10T10:40:16.583Z,9.29
2019-03-10T10:43:05.705Z,9.30
2019-03-10T10:46:05.451Z,9.05
2019-03-10T10:48:58.866Z,9.22
2019-03-10T10:51:54.651Z,9.20
2019-03-10T10:55:00.747Z,9.33
2019-03-10T10:57:51.591Z,9.56
2019-03-10T11:00:58.555Z,9.80
2019-03-10T11:04:05.016Z,9.69
2019-03-10T11:07:00.232Z,9.78
2019-03-10T11:10:04.234Z,9.66
2019-03-10T11:13:31.801Z,9.86
2019-03-10T11:16:20.319Z,10.06
2019-03-10T11:19:04.859Z,10.03
2019-03-10T11:21:58.901Z,10.11
2019-03-10T11:24:36.143Z,10.25
2019-03-10T11:27:26.657Z,10.53
2019-03-10T11:30:22.119Z,10.50
2019-03-10T11:33:18.834Z,10.50
2019-03-10T11:36:02.888Z,10.56
2019-03-10T11:38:44.647Z,10.66
2019-03-10T11:41:45.409Z,10.56
2019-03-10T11:44:36.576Z,10.40
2019-03-10T11:47:30.801Z,10.04
2019-03-10T11:50:21.089Z,9.49
2019-03-10T11:53:26.367Z,9.45
2019-03-10T12:01:04.503Z,9.51
2019-03-10T12:04:06.469Z,9.38
2019-03-10T12:07:10.633Z,9.00
2019-03-10T12:09:45.517Z,9.03
2019-03-10T12:12:23.505Z,9.06
2019-03-10T12:15:01.128Z,9.06
2019-03-10T12:22:19.728Z,9.28
2019-03-10T12:25:28.872Z,9.88
2019-03-10T12:27:57.336Z,10.18
2019-03-10T12:30:37.610Z,10.35
2019-03-10T12:33:09.715Z,10.38
2019-03-10T12:35:46.104Z,10.09
2019-03-10T12:38:21.061Z,9.91
2019-03-10T12:40:53.663Z,10.10
2019-03-10T12:43:28.908Z,10.20
2019-03-10T12:46:03.952Z,10.41
2019-03-10T12:48:40.378Z,10.53
2019-03-10T12:51:19.175Z,10.94
2019-03-10T12:53:54.570Z,11.27
2019-03-10T12:56:30.552Z,11.61
2019-03-10T12:59:04.633Z,11.54
2019-03-10T13:01:39.598Z,11.75
2019-03-10T13:04:13.238Z,11.62
2019-03-10T13:06:47.459Z,10.84
2019-03-10T13:09:19.550Z,10.36
2019-03-10T13:11:52.781Z,9.68
2019-03-10T13:14:24.959Z,9.39
2019-03-10T13:16:57.163Z,9.51
2019-03-10T13:19:31.913Z,9.63
2019-03-10T13:22:04.031Z,9.79
2019-03-10T13:24:37.800Z,10.11
2019-03-10T13:27:10.410Z,10.01
2019-03-10T13:29:44.355Z,10.06
2019-03-10T13:32:16.546Z,10.31
2019-03-10T13:34:48.712Z,10.22
2019-03-10T13:37:53.963Z,10.25
2019-03-10T13:40:21.665Z,10.40
2019-03-10T13:42:58.430Z,10.54
2019-03-10T13:45:39.537Z,10.13
2019-03-10T13:48:18.338Z,9.80
2019-03-10T13:50:58.918Z,9.86
2019-03-10T13:53:55.662Z,9.13
2019-03-10T14:12:44.040Z,8.78
2019-03-10T14:15:28.039Z,8.59
2019-03-10T14:18:35.038Z,8.03
2019-03-10T14:21:18.130Z,8.10
2019-03-10T14:23:53.539Z,7.84
2019-03-10T14:26:34.929Z,7.83
2019-03-10T14:29:14.339Z,7.85
2019-03-10T14:31:57.722Z,7.55
2019-03-10T14:34:30.967Z,7.65
2019-03-10T14:37:13.640Z,7.72
2019-03-10T14:39:55.360Z,7.65
2019-03-10T14:42:37.007Z,7.78
2019-03-10T14:45:17.864Z,8.06
2019-03-10T14:47:53.203Z,8.21
2019-03-10T14:50:25.557Z,8.52
2019-03-10T14:53:37.713Z,8.35
2019-03-10T14:56:05.745Z,8.08
2019-03-10T14:58:43.347Z,7.66
2019-03-10T15:01:26.720Z,7.07
2019-03-10T15:04:04.760Z,7.19
2019-03-10T15:06:39.819Z,7.14
2019-03-10T15:09:19.935Z,7.00
2019-03-10T15:12:02.539Z,7.06
2019-03-10T15:14:49.177Z,6.90
2019-03-10T15:17:29.017Z,6.86
2019-03-10T15:20:08.801Z,6.89
2019-03-10T15:22:41.313Z,6.94
2019-03-10T15:25:14.554Z,7.03
2019-03-10T15:27:50.305Z,7.13
2019-03-10T15:30:22.506Z,6.93
2019-03-10T15:33:22.951Z,7.03
2019-03-10T15:35:56.820Z,6.85
2019-03-10T15:38:28.964Z,6.88
2019-03-10T15:41:01.225Z,6.75
2019-03-10T15:43:44.197Z,6.67
2019-03-10T15:46:19.691Z,6.70
2019-03-10T15:48:51.819Z,6.85
2019-03-10T15:51:23.885Z,6.74
2019-03-10T15:54:19.695Z,6.81
2019-03-10T15:56:59.429Z,6.86
2019-03-10T15:59:35.838Z,6.83
2019-03-10T16:02:07.058Z,6.64
2019-03-10T16:04:40.436Z,6.61
2019-03-10T16:07:20.389Z,6.60
2019-03-10T16:09:56.007Z,6.62
2019-03-10T16:12:28.571Z,6.56
2019-03-10T16:15:15.174Z,6.77
2019-03-10T16:17:49.530Z,6.83
2019-03-10T16:20:23.521Z,6.65
2019-03-10T16:22:57.869Z,6.67
2019-03-10T16:25:43.121Z,6.65
2019-03-10T16:28:28.110Z,6.79
2019-03-10T16:31:02.246Z,7.02
2019-03-10T16:33:34.834Z,7.00
2019-03-10T16:36:14.669Z,6.97
2019-03-10T16:38:49.568Z,6.71
2019-03-10T16:41:23.803Z,6.62
2019-03-10T16:44:49.875Z,6.71
2019-03-10T16:47:36.862Z,6.80
2019-03-10T16:50:27.369Z,6.94
2019-03-10T16:59:48.337Z,6.63
2019-03-10T17:02:20.731Z,6.63
2019-03-10T17:04:52.925Z,6.70
2019-03-10T17:07:26.275Z,6.85
2019-03-10T17:09:58.518Z,6.90
2019-03-10T17:12:56.092Z,6.98
2019-03-10T17:15:28.338Z,7.01
2019-03-10T17:18:01.030Z,7.00
2019-03-10T17:20:40.689Z,6.99
2019-03-10T17:23:19.112Z,6.95
2019-03-10T17:25:56.629Z,7.03
2019-03-10T17:28:38.005Z,6.97
2019-03-10T17:31:28.034Z,6.93
2019-03-10T17:34:00.536Z,6.97
2019-03-10T17:36:40.884Z,6.92
2019-03-10T17:39:24.610Z,6.90
2019-03-10T17:42:00.243Z,6.94
2019-03-10T17:44:41.230Z,6.96
2019-03-10T17:47:26.808Z,6.94
2019-03-10T17:50:00.522Z,6.93
2019-03-10T17:52:41.727Z,6.92
2019-03-10T17:55:19.426Z,6.90
2019-03-10T17:58:12.432Z,6.86
2019-03-10T18:00:46.695Z,6.84
2019-03-10T18:03:19.901Z,6.91
2019-03-10T18:05:56.168Z,6.93
2019-03-10T18:08:31.855Z,6.99
2019-03-10T18:11:06.933Z,7.05
2019-03-10T18:13:40.153Z,7.00
2019-03-10T18:16:12.360Z,6.99
2019-03-10T18:18:49.704Z,7.00
2019-03-10T18:21:30.540Z,6.98
2019-03-10T18:24:12.748Z,6.93
2019-03-10T18:26:52.786Z,7.07
2019-03-10T18:29:31.406Z,7.06
2019-03-10T18:32:03.723Z,7.37
2019-03-10T18:34:41.252Z,7.87
2019-03-10T18:37:14.072Z,7.88
2019-03-10T18:39:47.715Z,7.85
2019-03-10T18:42:33.624Z,8.09
2019-03-10T18:45:09.149Z,8.00
2019-03-10T18:47:43.085Z,7.92
2019-03-10T18:50:17.064Z,7.86
2019-03-10T18:52:49.635Z,8.07
2019-03-10T18:55:25.816Z,8.08
2019-03-10T18:57:58.822Z,8.21
2019-03-10T19:00:31.072Z,8.49
2019-03-10T19:03:03.159Z,8.60
2019-03-10T19:05:42.484Z,8.63
2019-03-10T19:08:12.236Z,8.80
2019-03-10T19:10:47.707Z,8.72
2019-03-10T19:13:19.873Z,8.66
2019-03-10T19:15:55.550Z,8.60
2019-03-10T19:18:31.636Z,8.53
2019-03-10T19:21:05.674Z,8.69
2019-03-10T19:23:41.593Z,8.80
2019-03-10T19:26:28.562Z,8.96
2019-03-10T19:28:55.538Z,8.95
2019-03-10T19:31:36.278Z,8.96
2019-03-10T19:34:15.539Z,8.65
2019-03-10T19:36:56.589Z,8.26
2019-03-10T19:39:31.084Z,7.93
2019-03-10T19:42:28.974Z,7.78
2019-03-10T19:45:01.519Z,7.77
2019-03-10T19:47:34.925Z,7.91
2019-03-10T19:50:10.236Z,7.79
2019-03-10T19:52:42.934Z,7.82
2019-03-10T19:55:16.352Z,7.64
2019-03-10T19:57:49.376Z,7.70
2019-03-10T20:00:22.482Z,7.77
2019-03-10T20:02:56.366Z,7.88
2019-03-10T20:05:28.991Z,7.88
2019-03-10T20:08:04.051Z,7.92
2019-03-10T20:10:37.227Z,7.86
2019-03-10T20:13:09.680Z,7.80
2019-03-10T20:15:43.803Z,7.90
2019-03-10T20:18:15.873Z,7.81
2019-03-10T20:20:48.031Z,7.70
2019-03-10T20:23:20.114Z,7.74
2019-03-10T20:29:39.728Z,7.71
2019-03-10T20:32:14.151Z,7.53
2019-03-10T20:34:46.692Z,7.48
2019-03-10T20:37:18.927Z,7.46
2019-03-10T20:39:51.503Z,7.54
2019-03-10T20:42:25.339Z,7.39
2019-03-10T20:44:57.659Z,7.38
2019-03-10T20:47:29.767Z,7.33
2019-03-10T20:50:01.946Z,7.40
2019-03-10T20:52:35.599Z,7.38
2019-03-10T20:55:07.814Z,7.56
2019-03-10T20:57:40.193Z,7.67
2019-03-10T21:00:17.755Z,7.72
2019-03-10T21:02:51.355Z,7.51
2019-03-10T21:05:23.471Z,6.88
2019-03-10T21:07:58.675Z,5.42
2019-03-10T21:10:30.814Z,4.90
2019-03-10T21:13:05.364Z,3.99
2019-03-10T21:15:40.629Z,3.46
2019-03-10T21:18:12.456Z,3.34
2019-03-10T21:20:50.966Z,3.08
2019-03-10T21:23:23.607Z,2.83
2019-03-10T21:25:55.742Z,2.74
2019-03-10T21:28:34.742Z,2.63
2019-03-10T21:31:11.241Z,2.45
2019-03-10T21:33:43.329Z,2.26
2019-03-10T21:36:21.218Z,2.16
2019-03-10T21:38:58.305Z,2.09
2019-03-10T21:41:38.602Z,1.93
2019-03-10T21:44:26.227Z,1.71
2019-03-10T21:46:53.852Z,1.57
2019-03-10T21:49:32.198Z,1.49
2019-03-10T21:52:07.019Z,1.45
2019-03-10T21:54:40.859Z,1.44
2019-03-10T21:57:15.476Z,1.43
2019-03-10T21:59:48.852Z,1.44
2019-03-10T22:02:20.923Z,1.48
2019-03-10T22:04:54.538Z,1.50
2019-03-10T22:07:43.604Z,1.55
2019-03-10T22:10:26.331Z,1.61
2019-03-10T22:12:54.286Z,1.62
2019-03-10T22:15:28.935Z,1.60
2019-03-10T22:18:06.474Z,1.64
2019-03-10T22:20:45.009Z,1.66
2019-03-10T22:23:20.166Z,1.68
2019-03-10T22:26:00.650Z,1.70
2019-03-10T22:28:43.224Z,1.71
2019-03-10T22:31:17.048Z,1.67
2019-03-10T22:33:56.445Z,1.78
2019-03-10T22:36:36.770Z,1.80
2019-03-10T22:39:11.496Z,1.82
2019-03-10T22:41:45.158Z,1.86
2019-03-10T22:44:19.441Z,1.86
2019-03-10T22:46:52.654Z,1.86
2019-03-10T22:49:24.800Z,1.89
2019-03-10T22:51:56.741Z,1.86
2019-03-10T22:54:28.786Z,1.87
2019-03-10T22:57:04.707Z,1.92
2019-03-10T22:59:37.989Z,1.92
2019-03-10T23:02:09.930Z,1.97
2019-03-10T23:04:46.536Z,1.96
2019-03-10T23:07:18.541Z,2.04
2019-03-10T23:09:50.478Z,2.06
2019-03-10T23:12:24.227Z,2.13
2019-03-10T23:14:57.665Z,2.13
2019-03-10T23:17:34.564Z,2.21
2019-03-10T23:20:09.756Z,2.25
2019-03-10T23:22:41.710Z,2.24
2019-03-10T23:25:14.637Z,2.30
2019-03-10T23:27:46.585Z,2.39
2019-03-10T23:30:18.749Z,2.41
2019-03-10T23:32:51.242Z,2.39
2019-03-10T23:35:23.393Z,2.43
2019-03-10T23:37:55.285Z,2.40
2019-03-10T23:40:27.173Z,2.48
2019-03-10T23:42:59.249Z,2.42
2019-03-10T23:45:31.138Z,2.35
2019-03-10T23:48:02.985Z,2.28
2019-03-10T23:50:34.917Z,2.27
2019-03-10T23:53:14.097Z,2.36
2019-03-10T23:55:47.669Z,2.41
2019-03-10T23:58:19.714Z,2.43
